Time;durP1;ratioP1;P1;durP2;ratioP2;P2;SDS_P1;SDS_P2;PMS_P1;PMS_P2;Temp;Humidity;BMP_temperature;BMP_pressure;BME280_temperature;BME280_humidity;BME280_pressure;Samples;Min_cycle;Max_cycle;Signal;HPM_P1;HPM_P2
2022/10/21 00:02:35;;;;;;;19.80;11.23;;;;;;;;;;6186916;28;20029;-78
2022/10/21 00:05:35;;;;;;;25.08;11.60;;;;;;;;;;6183854;28;20050;-78
2022/10/21 00:08:35;;;;;;;26.73;12.88;;;;;;;;;;6166463;28;20038;-79
2022/10/21 00:11:36;;;;;;;25.53;11.17;;;;;;;;;;6159167;28;20031;-79
2022/10/21 00:14:36;;;;;;;28.80;11.68;;;;;;;;;;6168572;28;20035;-78
2022/10/21 00:17:37;;;;;;;23.38;11.82;;;;;;;;;;6179793;28;20030;-78
2022/10/21 00:20:40;;;;;;;26.93;11.30;;;;;;;;;;6155373;28;20093;-78
2022/10/21 00:23:41;;;;;;;23.65;11.45;;;;;;;;;;6194700;28;20026;-78
2022/10/21 00:26:41;;;;;;;22.63;11.70;;;;;;;;;;6188916;28;20037;-80
2022/10/21 00:29:41;;;;;;;17.88;9.75;;;;;;;;;;6163772;28;20049;-79
2022/10/21 00:32:41;;;;;;;27.30;13.00;;;;;;;;;;6167917;28;20018;-80
2022/10/21 00:35:42;;;;;;;26.17;12.60;;;;;;;;;;6166523;28;20430;-80
2022/10/21 00:38:43;;;;;;;29.50;12.07;;;;;;;;;;6158361;28;20475;-80
2022/10/21 00:41:43;;;;;;;24.23;11.73;;;;;;;;;;6170831;28;20026;-80
2022/10/21 00:45:01;;;;;;;23.87;11.33;;;;;;;;;;6174583;28;20015;-80
2022/10/21 00:48:21;;;;;;;21.92;10.43;;;;;;;;;;6174611;28;20019;-80
2022/10/21 00:51:21;;;;;;;21.35;11.02;;;;;;;;;;6157392;28;20028;-79
2022/10/21 00:54:23;;;;;;;19.30;10.77;;;;;;;;;;6162339;28;20023;-80
2022/10/21 00:57:24;;;;;;;26.00;11.50;;;;;;;;;;6154316;28;20101;-80
2022/10/21 01:00:24;;;;;;;30.70;14.57;;;;;;;;;;6159918;28;20016;-80
2022/10/21 01:03:25;;;;;;;32.88;16.17;;;;;;;;;;6150681;28;20097;-80
2022/10/21 01:06:25;;;;;;;33.47;17.75;;;;;;;;;;6166684;28;20035;-80
2022/10/21 01:09:26;;;;;;;37.20;18.40;;;;;;;;;;6157415;28;20011;-80
2022/10/21 01:12:34;;;;;;;43.87;18.20;;;;;;;;;;6166079;28;20386;-80
2022/10/21 01:15:37;;;;;;;43.80;18.33;;;;;;;;;;6155789;28;20030;-80
2022/10/21 01:18:55;;;;;;;46.00;21.17;;;;;;;;;;6173861;28;20011;-79
2022/10/21 01:21:59;;;;;;;55.63;26.23;;;;;;;;;;6172642;28;20097;-80
2022/10/21 01:25:08;;;;;;;51.60;24.85;;;;;;;;;;6162723;28;20115;-80
2022/10/21 01:28:34;;;;;;;39.90;19.55;;;;;;;;;;6150468;28;20022;-79
2022/10/21 01:32:00;;;;;;;44.22;22.85;;;;;;;;;;6184993;28;20034;-80
2022/10/21 01:35:06;;;;;;;45.35;20.67;;;;;;;;;;6176075;28;20097;-80
2022/10/21 01:38:25;;;;;;;39.88;19.20;;;;;;;;;;6176679;28;20086;-80
2022/10/21 01:41:38;;;;;;;43.25;21.08;;;;;;;;;;6177934;28;20397;-79
2022/10/21 01:44:50;;;;;;;45.97;22.13;;;;;;;;;;6186344;28;20034;-80
2022/10/21 01:47:55;;;;;;;48.88;20.88;;;;;;;;;;6178329;28;20073;-80
2022/10/21 01:50:58;;;;;;;43.35;22.95;;;;;;;;;;6157876;28;20019;-79
2022/10/21 01:54:27;;;;;;;41.15;19.65;;;;;;;;;;6177617;28;20430;-80
2022/10/21 01:57:29;;;;;;;41.63;18.70;;;;;;;;;;6158793;28;20031;-79
2022/10/21 02:00:32;;;;;;;34.38;17.58;;;;;;;;;;6164194;28;20016;-79
2022/10/21 02:03:34;;;;;;;33.55;17.27;;;;;;;;;;6174471;28;20418;-79
2022/10/21 02:06:34;;;;;;;;;;;;;;;;;;6155942;28;20121;-80
2022/10/21 02:09:34;;;;;;;33.25;16.33;;;;;;;;;;6177332;28;20230;-79
2022/10/21 02:12:35;;;;;;;40.88;17.80;;;;;;;;;;6174077;28;20105;-79
2022/10/21 02:15:36;;;;;;;27.67;14.23;;;;;;;;;;6177046;28;20030;-79
2022/10/21 02:18:36;;;;;;;36.33;20.20;;;;;;;;;;6158872;28;20474;-79
2022/10/21 02:21:36;;;;;;;41.60;16.70;;;;;;;;;;6176811;28;20022;-79
2022/10/21 02:24:50;;;;;;;36.03;16.60;;;;;;;;;;6166112;28;20258;-79
2022/10/21 02:27:50;;;;;;;30.30;16.42;;;;;;;;;;6171915;28;20533;-80
2022/10/21 02:30:53;;;;;;;25.80;13.73;;;;;;;;;;6172734;28;20027;-79
2022/10/21 02:34:16;;;;;;;29.95;14.60;;;;;;;;;;6167391;28;20019;-79
2022/10/21 02:37:30;;;;;;;35.15;17.85;;;;;;;;;;6166873;28;20376;-80
2022/10/21 02:40:35;;;;;;;30.65;15.23;;;;;;;;;;6177194;28;20090;-79
2022/10/21 02:43:38;;;;;;;33.80;16.55;;;;;;;;;;6159259;28;20050;-80
2022/10/21 02:46:40;;;;;;;35.50;15.55;;;;;;;;;;6159905;28;20026;-80
2022/10/21 02:49:42;;;;;;;38.38;16.13;;;;;;;;;;6159407;28;20015;-80
2022/10/21 02:52:42;;;;;;;;;;;;;;;;;;6177330;28;20356;-81
2022/10/21 02:55:42;;;;;;;35.80;14.38;;;;;;;;;;6177370;28;19914;-81
2022/10/21 02:58:42;;;;;;;35.03;17.10;;;;;;;;;;6169369;28;20262;-80
2022/10/21 03:01:42;;;;;;;32.13;15.70;;;;;;;;;;6183051;28;20021;-81
2022/10/21 03:04:43;;;;;;;38.93;16.57;;;;;;;;;;6187092;28;20104;-82
2022/10/21 03:07:43;;;;;;;34.03;16.97;;;;;;;;;;6173294;28;20483;-81
2022/10/21 03:10:43;;;;;;;33.63;14.33;;;;;;;;;;6165847;28;20015;-82
2022/10/21 03:13:43;;;;;;;27.27;13.15;;;;;;;;;;6176673;28;20414;-81
2022/10/21 03:16:43;;;;;;;32.72;15.00;;;;;;;;;;6176347;28;20049;-81
2022/10/21 03:19:43;;;;;;;30.40;14.03;;;;;;;;;;6152451;29;20102;-81
2022/10/21 03:22:44;;;;;;;39.90;18.23;;;;;;;;;;6158082;28;20015;-81
2022/10/21 03:25:44;;;;;;;27.17;14.17;;;;;;;;;;6172853;28;20021;-81
2022/10/21 03:28:44;;;;;;;30.42;15.93;;;;;;;;;;6171465;28;20015;-81
2022/10/21 03:31:45;;;;;;;29.85;15.23;;;;;;;;;;6159403;28;20585;-81
2022/10/21 03:34:45;;;;;;;32.15;13.38;;;;;;;;;;6159759;28;20321;-80
2022/10/21 03:37:45;;;;;;;27.76;12.76;;;;;;;;;;6168701;28;20281;-80
2022/10/21 03:40:45;;;;;;;23.92;14.10;;;;;;;;;;6170610;28;20149;-79
2022/10/21 03:43:45;;;;;;;27.60;14.27;;;;;;;;;;6152272;28;20027;-80
2022/10/21 03:46:46;;;;;;;28.97;14.13;;;;;;;;;;6175015;28;20031;-79
2022/10/21 03:49:46;;;;;;;27.33;11.63;;;;;;;;;;6174815;28;20114;-79
2022/10/21 03:52:46;;;;;;;22.90;11.60;;;;;;;;;;6152561;28;20022;-79
2022/10/21 03:55:46;;;;;;;27.55;13.55;;;;;;;;;;6167239;28;20435;-78
2022/10/21 03:58:47;;;;;;;32.13;13.67;;;;;;;;;;6157991;28;20033;-79
2022/10/21 04:01:47;;;;;;;29.83;13.30;;;;;;;;;;6158820;28;20530;-78
2022/10/21 04:04:47;;;;;;;26.93;13.57;;;;;;;;;;6177674;28;20045;-78
2022/10/21 04:07:47;;;;;;;19.57;8.80;;;;;;;;;;6172790;28;20055;-78
2022/10/21 04:10:47;;;;;;;33.50;15.00;;;;;;;;;;6168192;28;20383;-78
2022/10/21 04:13:48;;;;;;;28.17;14.77;;;;;;;;;;6157484;28;20023;-78
2022/10/21 04:16:48;;;;;;;22.60;10.00;;;;;;;;;;6170932;28;20034;-78
2022/10/21 04:19:49;;;;;;;51.67;21.07;;;;;;;;;;6184262;28;20122;-78
2022/10/21 04:22:49;;;;;;;44.03;17.07;;;;;;;;;;6178205;28;20026;-80
2022/10/21 04:25:49;;;;;;;33.27;16.00;;;;;;;;;;6175043;28;20101;-77
2022/10/21 04:28:49;;;;;;;38.33;14.80;;;;;;;;;;6173851;28;20018;-77
2022/10/21 04:31:49;;;;;;;42.07;17.47;;;;;;;;;;6164588;28;20031;-79
2022/10/21 04:34:50;;;;;;;32.90;14.53;;;;;;;;;;6169804;28;20491;-77
2022/10/21 04:37:50;;;;;;;33.33;17.15;;;;;;;;;;6171632;28;20121;-77
2022/10/21 04:40:57;;;;;;;28.33;12.80;;;;;;;;;;6162150;28;20026;-77
2022/10/21 04:43:57;;;;;;;32.30;15.18;;;;;;;;;;6179985;28;20405;-76
2022/10/21 04:46:58;;;;;;;34.13;17.10;;;;;;;;;;6173382;28;20030;-77
2022/10/21 04:49:58;;;;;;;40.27;21.77;;;;;;;;;;6155734;28;20515;-77
2022/10/21 04:52:58;;;;;;;46.75;23.05;;;;;;;;;;6167364;28;20027;-77
2022/10/21 04:55:58;;;;;;;52.38;28.28;;;;;;;;;;6162271;28;20045;-77
2022/10/21 04:58:58;;;;;;;54.83;25.83;;;;;;;;;;6170178;28;20030;-77
2022/10/21 05:01:59;;;;;;;59.38;25.92;;;;;;;;;;6155502;28;20403;-77
2022/10/21 05:04:59;;;;;;;53.57;27.73;;;;;;;;;;6165111;28;20047;-78
2022/10/21 05:07:59;;;;;;;52.50;23.10;;;;;;;;;;6168958;28;20031;-77
2022/10/21 05:11:00;;;;;;;52.73;24.80;;;;;;;;;;6168483;28;20054;-77
2022/10/21 05:14:00;;;;;;;56.10;26.52;;;;;;;;;;6154927;28;20030;-78
2022/10/21 05:17:00;;;;;;;36.47;19.80;;;;;;;;;;6173174;28;20059;-78
2022/10/21 05:20:04;;;;;;;39.00;19.10;;;;;;;;;;6158447;28;20023;-78
2022/10/21 05:23:04;;;;;;;43.95;19.90;;;;;;;;;;6167543;28;20102;-78
2022/10/21 05:26:04;;;;;;;43.17;18.27;;;;;;;;;;6167778;28;20019;-78
2022/10/21 05:29:04;;;;;;;38.63;19.40;;;;;;;;;;6171359;28;20018;-78
2022/10/21 05:32:04;;;;;;;42.00;22.77;;;;;;;;;;6156313;28;20026;-78
2022/10/21 05:35:05;;;;;;;38.43;20.93;;;;;;;;;;6150325;28;20053;-79
2022/10/21 05:38:05;;;;;;;36.67;18.00;;;;;;;;;;6154714;28;20022;-80
2022/10/21 05:41:05;;;;;;;47.77;23.90;;;;;;;;;;6163330;28;20486;-80
2022/10/21 05:44:06;;;;;;;42.83;21.13;;;;;;;;;;6161864;28;20630;-79
2022/10/21 05:47:06;;;;;;;30.98;16.10;;;;;;;;;;6152893;28;20042;-79
2022/10/21 05:50:07;;;;;;;37.60;19.00;;;;;;;;;;6151669;28;20031;-79
2022/10/21 05:53:07;;;;;;;38.45;17.52;;;;;;;;;;6171631;28;20650;-79
2022/10/21 05:56:07;;;;;;;40.43;24.27;;;;;;;;;;6154321;28;20023;-80
2022/10/21 05:59:08;;;;;;;41.60;23.77;;;;;;;;;;6158569;28;20290;-78
2022/10/21 06:02:09;;;;;;;60.67;31.52;;;;;;;;;;6162790;28;20027;-78
2022/10/21 06:05:09;;;;;;;45.35;28.75;;;;;;;;;;6161018;28;20039;-79
2022/10/21 06:08:09;;;;;;;70.43;37.55;;;;;;;;;;6158975;28;20031;-79
2022/10/21 06:11:11;;;;;;;76.17;39.97;;;;;;;;;;6166091;28;20029;-80
2022/10/21 06:14:11;;;;;;;65.63;34.75;;;;;;;;;;6163745;28;20304;-80
2022/10/21 06:17:11;;;;;;;32.80;18.40;;;;;;;;;;6166168;28;20043;-80
2022/10/21 06:20:11;;;;;;;35.03;19.77;;;;;;;;;;6168185;28;20285;-80
2022/10/21 06:23:14;;;;;;;36.85;20.13;;;;;;;;;;6170765;28;20289;-81
2022/10/21 06:26:14;;;;;;;38.65;21.77;;;;;;;;;;6163397;28;20057;-82
2022/10/21 06:29:16;;;;;;;37.08;22.88;;;;;;;;;;6150082;28;20026;-82
2022/10/21 06:32:16;;;;;;;34.38;17.58;;;;;;;;;;6174762;28;20026;-82
2022/10/21 06:35:16;;;;;;;35.47;17.90;;;;;;;;;;6162779;28;20039;-82
2022/10/21 06:38:17;;;;;;;26.48;16.17;;;;;;;;;;6165722;28;20027;-82
2022/10/21 06:41:17;;;;;;;41.45;24.00;;;;;;;;;;6165116;28;20019;-82
2022/10/21 06:44:18;;;;;;;48.70;30.60;;;;;;;;;;6160639;28;20025;-82
2022/10/21 06:47:18;;;;;;;43.33;26.73;;;;;;;;;;6157998;28;20031;-83
2022/10/21 06:50:18;;;;;;;51.77;26.37;;;;;;;;;;6160967;28;20033;-84
2022/10/21 06:53:18;;;;;;;55.15;29.08;;;;;;;;;;6160095;28;20267;-84
2022/10/21 06:56:20;;;;;;;54.40;31.53;;;;;;;;;;6169392;28;20022;-86
2022/10/21 06:59:20;;;;;;;;;;;;;;;;;;6166141;28;20113;-87
2022/10/21 07:02:22;;;;;;;37.75;19.13;;;;;;;;;;6168843;28;19911;-86
2022/10/21 07:05:23;;;;;;;43.60;24.08;;;;;;;;;;6168528;28;20170;-84
2022/10/21 07:08:23;;;;;;;39.50;19.67;;;;;;;;;;6152255;28;20080;-82
2022/10/21 07:11:23;;;;;;;34.67;19.95;;;;;;;;;;6170853;28;20668;-78
2022/10/21 07:14:24;;;;;;;29.77;17.35;;;;;;;;;;6179174;28;20022;-77
2022/10/21 07:17:24;;;;;;;27.85;16.83;;;;;;;;;;6174289;28;20630;-76
2022/10/21 07:20:24;;;;;;;26.95;17.20;;;;;;;;;;6173427;28;20023;-75
2022/10/21 07:23:24;;;;;;;21.08;13.80;;;;;;;;;;6161150;28;20022;-75
2022/10/21 07:26:26;;;;;;;26.23;14.87;;;;;;;;;;6187374;28;20018;-75
2022/10/21 07:29:26;;;;;;;23.10;13.55;;;;;;;;;;6176485;28;20023;-75
2022/10/21 07:32:26;;;;;;;27.83;14.90;;;;;;;;;;6156045;28;20023;-74
2022/10/21 07:35:26;;;;;;;23.58;14.40;;;;;;;;;;6170487;28;20042;-74
2022/10/21 07:38:27;;;;;;;30.30;15.25;;;;;;;;;;6167346;28;20455;-74
2022/10/21 07:41:29;;;;;;;25.70;15.23;;;;;;;;;;6171087;28;20022;-73
2022/10/21 07:44:30;;;;;;;29.35;14.32;;;;;;;;;;6163455;28;20085;-73
2022/10/21 07:47:30;;;;;;;29.90;16.07;;;;;;;;;;6167696;28;20023;-73
2022/10/21 07:50:30;;;;;;;22.92;15.18;;;;;;;;;;6181052;28;20034;-73
2022/10/21 07:53:30;;;;;;;27.20;14.60;;;;;;;;;;6162749;28;20075;-75
2022/10/21 07:56:32;;;;;;;26.88;16.77;;;;;;;;;;6178789;28;20273;-75
2022/10/21 07:59:32;;;;;;;;;;;;;;;;;;6171597;28;20073;-75
2022/10/21 08:02:33;;;;;;;29.52;15.10;;;;;;;;;;6181199;28;19906;-75
2022/10/21 08:05:33;;;;;;;32.42;16.15;;;;;;;;;;6161327;28;20043;-76
2022/10/21 08:08:33;;;;;;;31.10;16.20;;;;;;;;;;6148967;28;20106;-76
2022/10/21 08:11:34;;;;;;;30.13;14.23;;;;;;;;;;6138515;29;20294;-76
2022/10/21 08:14:34;;;;;;;32.83;15.70;;;;;;;;;;6147316;29;20027;-76
2022/10/21 08:17:34;;;;;;;29.85;15.32;;;;;;;;;;6140692;29;20023;-76
2022/10/21 08:20:38;;;;;;;26.90;16.70;;;;;;;;;;6153323;28;20023;-76
2022/10/21 08:23:39;;;;;;;26.83;15.60;;;;;;;;;;6125981;29;20032;-76
2022/10/21 08:26:39;;;;;;;27.92;14.88;;;;;;;;;;6149055;29;20404;-76
2022/10/21 08:29:39;;;;;;;28.67;16.17;;;;;;;;;;6146933;28;20512;-75
2022/10/21 08:32:39;;;;;;;39.87;19.00;;;;;;;;;;6139606;29;20012;-73
2022/10/21 08:35:39;;;;;;;31.80;17.53;;;;;;;;;;6142422;28;20027;-73
2022/10/21 08:38:40;;;;;;;27.77;15.13;;;;;;;;;;6137645;28;20019;-73
2022/10/21 08:41:46;;;;;;;24.17;14.53;;;;;;;;;;6142874;29;20016;-73
2022/10/21 08:44:50;;;;;;;24.05;14.82;;;;;;;;;;6161126;28;20046;-73
2022/10/21 08:47:53;;;;;;;25.95;14.80;;;;;;;;;;6134153;28;20055;-73
2022/10/21 08:50:55;;;;;;;27.75;15.77;;;;;;;;;;6138996;28;20065;-73
2022/10/21 08:53:57;;;;;;;28.50;15.97;;;;;;;;;;6138319;29;20097;-73
2022/10/21 08:56:59;;;;;;;25.45;15.73;;;;;;;;;;6132461;28;20375;-74
2022/10/21 08:59:59;;;;;;;27.67;15.95;;;;;;;;;;6131506;28;20550;-74
2022/10/21 09:03:00;;;;;;;41.43;19.87;;;;;;;;;;6140712;29;20446;-74
2022/10/21 09:06:03;;;;;;;27.27;17.38;;;;;;;;;;6147066;28;20046;-74
2022/10/21 09:09:16;;;;;;;29.92;18.73;;;;;;;;;;6161097;28;20452;-73
2022/10/21 09:12:36;;;;;;;30.75;17.15;;;;;;;;;;6162579;28;20500;-73
2022/10/21 09:16:18;;;;;;;30.58;16.40;;;;;;;;;;6143393;28;20043;-73
2022/10/21 09:19:24;;;;;;;25.88;15.95;;;;;;;;;;6106166;29;20534;-74
2022/10/21 09:22:43;;;;;;;31.80;16.70;;;;;;;;;;6101756;29;20433;-74
2022/10/21 09:26:09;;;;;;;24.90;15.40;;;;;;;;;;6153273;28;20016;-74
2022/10/21 09:29:09;;;;;;;25.63;15.43;;;;;;;;;;6167189;28;20949;-74
2022/10/21 09:32:14;;;;;;;37.28;17.50;;;;;;;;;;6168916;28;20094;-74
2022/10/21 09:35:19;;;;;;;34.33;18.88;;;;;;;;;;6157565;28;20026;-74
2022/10/21 09:38:24;;;;;;;29.40;18.23;;;;;;;;;;6170726;28;20023;-74
2022/10/21 09:41:28;;;;;;;30.73;16.13;;;;;;;;;;6154576;28;20065;-74
2022/10/21 09:44:28;;;;;;;23.00;14.73;;;;;;;;;;6150540;28;20030;-74
2022/10/21 09:47:28;;;;;;;24.77;14.63;;;;;;;;;;6167503;28;20089;-74
2022/10/21 09:50:30;;;;;;;27.87;16.70;;;;;;;;;;6179700;28;20105;-74
2022/10/21 09:53:30;;;;;;;27.38;15.88;;;;;;;;;;6190705;28;20386;-73
2022/10/21 09:56:34;;;;;;;30.85;15.90;;;;;;;;;;6182021;28;20390;-73
2022/10/21 09:59:36;;;;;;;31.92;19.45;;;;;;;;;;6177061;28;20037;-73
2022/10/21 10:02:38;;;;;;;43.13;19.08;;;;;;;;;;6176797;28;20044;-73
2022/10/21 10:05:43;;;;;;;25.65;14.90;;;;;;;;;;6153743;28;20402;-74
2022/10/21 10:08:46;;;;;;;25.52;14.38;;;;;;;;;;6164213;28;20113;-74
2022/10/21 10:11:52;;;;;;;23.60;12.80;;;;;;;;;;6167368;28;20478;-74
2022/10/21 10:14:52;;;;;;;23.50;11.05;;;;;;;;;;6178950;28;20097;-74
2022/10/21 10:17:55;;;;;;;28.17;15.07;;;;;;;;;;6159979;28;20531;-73
2022/10/21 10:21:08;;;;;;;47.97;21.25;;;;;;;;;;6163778;28;20030;-74
2022/10/21 10:24:15;;;;;;;33.92;18.15;;;;;;;;;;6157754;28;20019;-73
2022/10/21 10:27:22;;;;;;;38.47;19.52;;;;;;;;;;6146960;28;20042;-74
2022/10/21 10:30:23;;;;;;;19.60;11.18;;;;;;;;;;6166215;28;20094;-73
2022/10/21 10:33:28;;;;;;;27.43;13.90;;;;;;;;;;6166573;28;20034;-73
2022/10/21 10:36:30;;;;;;;19.83;11.05;;;;;;;;;;6165850;28;20105;-73
2022/10/21 10:39:32;;;;;;;18.80;10.07;;;;;;;;;;6148119;28;20042;-73
2022/10/21 10:42:41;;;;;;;20.63;10.60;;;;;;;;;;6150448;28;20010;-73
2022/10/21 10:45:50;;;;;;;23.92;11.73;;;;;;;;;;6157323;28;20020;-73
2022/10/21 10:48:51;;;;;;;20.65;11.85;;;;;;;;;;6164410;28;20105;-73
2022/10/21 10:52:13;;;;;;;19.83;11.57;;;;;;;;;;6174371;28;20049;-73
2022/10/21 10:55:16;;;;;;;31.08;16.17;;;;;;;;;;6166412;28;20118;-74
2022/10/21 10:58:16;;;;;;;26.98;14.27;;;;;;;;;;6153441;28;20545;-74
2022/10/21 11:01:21;;;;;;;29.30;15.63;;;;;;;;;;6166921;28;20081;-74
2022/10/21 11:04:29;;;;;;;26.73;13.65;;;;;;;;;;6169477;28;20055;-74
2022/10/21 11:07:32;;;;;;;18.10;9.95;;;;;;;;;;6169706;28;20098;-74
2022/10/21 11:10:43;;;;;;;20.55;9.70;;;;;;;;;;6167121;28;20026;-74
2022/10/21 11:13:43;;;;;;;28.08;13.75;;;;;;;;;;6154879;28;20057;-75
2022/10/21 11:16:49;;;;;;;18.80;10.67;;;;;;;;;;6168147;28;20010;-74
2022/10/21 11:19:52;;;;;;;20.83;10.30;;;;;;;;;;6155300;28;20028;-74
2022/10/21 11:23:06;;;;;;;14.48;9.27;;;;;;;;;;6153906;28;20023;-74
2022/10/21 11:26:25;;;;;;;33.72;15.93;;;;;;;;;;6157464;28;20027;-74
2022/10/21 11:29:34;;;;;;;19.02;10.63;;;;;;;;;;6151750;28;20031;-74
2022/10/21 11:32:40;;;;;;;18.58;9.20;;;;;;;;;;6162397;28;20124;-74
2022/10/21 11:35:59;;;;;;;23.70;11.95;;;;;;;;;;6169049;28;20462;-74
2022/10/21 11:39:02;;;;;;;19.23;9.90;;;;;;;;;;6164999;28;20026;-74
2022/10/21 11:42:17;;;;;;;20.55;10.80;;;;;;;;;;6161799;28;20015;-74
2022/10/21 11:45:33;;;;;;;16.83;10.02;;;;;;;;;;6165474;28;20027;-74
2022/10/21 11:48:40;;;;;;;19.58;8.80;;;;;;;;;;6159155;28;20066;-74
2022/10/21 11:52:08;;;;;;;23.08;10.68;;;;;;;;;;6153192;28;20058;-73
2022/10/21 11:55:11;;;;;;;18.83;9.32;;;;;;;;;;6164089;28;20038;-73
2022/10/21 11:58:11;;;;;;;26.77;14.77;;;;;;;;;;6154352;28;20044;-73
2022/10/21 12:01:22;;;;;;;24.58;11.05;;;;;;;;;;6155476;28;20031;-74
2022/10/21 12:04:25;;;;;;;27.02;12.05;;;;;;;;;;6162666;28;20021;-74
2022/10/21 12:07:41;;;;;;;17.63;9.75;;;;;;;;;;6158500;28;20129;-74
2022/10/21 12:11:03;;;;;;;21.38;10.20;;;;;;;;;;6149878;28;20052;-74
2022/10/21 12:14:26;;;;;;;17.90;8.80;;;;;;;;;;6155161;28;20031;-74
2022/10/21 12:17:26;;;;;;;14.90;7.18;;;;;;;;;;6172613;28;20031;-74
2022/10/21 12:20:26;;;;;;;13.70;6.93;;;;;;;;;;6169649;28;20029;-74
2022/10/21 12:23:28;;;;;;;15.13;8.03;;;;;;;;;;6156267;28;20186;-74
2022/10/21 12:26:39;;;;;;;13.82;6.95;;;;;;;;;;6154752;28;20023;-74
2022/10/21 12:29:41;;;;;;;18.20;8.45;;;;;;;;;;6153741;28;20102;-74
2022/10/21 12:32:53;;;;;;;13.40;6.57;;;;;;;;;;6154135;28;20015;-74
2022/10/21 12:35:56;;;;;;;16.98;7.93;;;;;;;;;;6155664;28;20332;-74
2022/10/21 12:38:57;;;;;;;13.75;7.38;;;;;;;;;;6155023;28;20457;-74
2022/10/21 12:42:17;;;;;;;15.85;8.07;;;;;;;;;;6147539;28;20264;-74
2022/10/21 12:45:25;;;;;;;17.60;10.05;;;;;;;;;;6154388;28;20039;-74
2022/10/21 12:48:37;;;;;;;55.92;30.38;;;;;;;;;;6172332;28;20023;-74
2022/10/21 12:51:37;;;;;;;;;;;;;;;;;;6155508;28;20023;-74
2022/10/21 12:54:57;;;;;;;26.35;13.07;;;;;;;;;;6165140;28;19911;-73
2022/10/21 12:58:03;;;;;;;30.33;15.07;;;;;;;;;;6158253;28;20531;-73
2022/10/21 13:01:05;;;;;;;19.63;9.20;;;;;;;;;;6155050;28;20098;-73
2022/10/21 13:04:37;;;;;;;13.55;7.57;;;;;;;;;;6170863;28;20077;-74
2022/10/21 13:07:38;;;;;;;18.05;9.32;;;;;;;;;;6162920;28;20039;-74
2022/10/21 13:10:38;;;;;;;20.07;8.70;;;;;;;;;;6161802;28;20022;-74
2022/10/21 13:13:39;;;;;;;16.03;7.07;;;;;;;;;;6144973;28;20055;-74
2022/10/21 13:16:40;;;;;;;20.40;10.82;;;;;;;;;;6169910;28;20022;-74
2022/10/21 13:19:40;;;;;;;18.37;10.40;;;;;;;;;;6150322;28;20097;-74
2022/10/21 13:22:41;;;;;;;23.83;12.00;;;;;;;;;;6144085;28;20027;-74
2022/10/21 13:25:42;;;;;;;19.95;9.68;;;;;;;;;;6159528;28;20400;-74
2022/10/21 13:28:53;;;;;;;22.10;10.90;;;;;;;;;;6173509;28;20027;-74
2022/10/21 13:32:12;;;;;;;25.95;15.48;;;;;;;;;;6176214;28;20019;-75
2022/10/21 13:35:18;;;;;;;16.27;9.15;;;;;;;;;;6175880;28;20110;-75
2022/10/21 13:38:20;;;;;;;18.90;10.50;;;;;;;;;;6175525;28;20132;-75
2022/10/21 13:41:22;;;;;;;18.58;9.55;;;;;;;;;;6175087;28;20023;-75
2022/10/21 13:44:32;;;;;;;20.55;11.88;;;;;;;;;;6175083;28;20046;-74
2022/10/21 13:47:33;;;;;;;19.17;10.27;;;;;;;;;;6160119;28;20109;-74
2022/10/21 13:50:37;;;;;;;21.70;11.55;;;;;;;;;;6169859;28;20023;-74
2022/10/21 13:53:42;;;;;;;18.67;9.48;;;;;;;;;;6169447;28;20031;-74
2022/10/21 13:56:42;;;;;;;22.95;11.10;;;;;;;;;;6150266;28;20434;-74
2022/10/21 13:59:42;;;;;;;15.73;9.00;;;;;;;;;;6161210;28;20022;-74
2022/10/21 14:02:50;;;;;;;18.47;11.60;;;;;;;;;;6156067;28;20405;-75
2022/10/21 14:05:51;;;;;;;18.20;9.77;;;;;;;;;;6153122;28;20046;-75
2022/10/21 14:08:52;;;;;;;16.97;8.60;;;;;;;;;;6164623;28;20518;-75
2022/10/21 14:11:56;;;;;;;16.13;8.25;;;;;;;;;;6143394;28;20041;-75
2022/10/21 14:15:01;;;;;;;16.45;9.77;;;;;;;;;;6167355;28;20026;-75
2022/10/21 14:18:02;;;;;;;18.30;9.77;;;;;;;;;;6166276;28;20479;-75
2022/10/21 14:21:03;;;;;;;18.30;11.20;;;;;;;;;;6160435;28;20026;-75
2022/10/21 14:24:04;;;;;;;17.17;9.40;;;;;;;;;;6173713;28;20030;-75
2022/10/21 14:27:04;;;;;;;17.40;10.27;;;;;;;;;;6172780;28;20033;-75
2022/10/21 14:30:08;;;;;;;28.40;15.07;;;;;;;;;;6173257;28;20491;-74
2022/10/21 14:33:14;;;;;;;34.92;19.00;;;;;;;;;;6157421;28;20023;-74
2022/10/21 14:36:19;;;;;;;26.55;15.13;;;;;;;;;;6150774;28;20098;-74
2022/10/21 14:39:20;;;;;;;31.05;16.77;;;;;;;;;;6155155;28;20430;-75
2022/10/21 14:42:22;;;;;;;32.70;17.17;;;;;;;;;;6167168;28;20011;-75
2022/10/21 14:45:24;;;;;;;35.78;19.52;;;;;;;;;;6170619;28;20418;-75
2022/10/21 14:48:32;;;;;;;34.58;20.58;;;;;;;;;;6156675;28;20046;-75
2022/10/21 14:51:36;;;;;;;32.13;17.48;;;;;;;;;;6174406;28;20368;-75
2022/10/21 14:54:40;;;;;;;38.67;20.02;;;;;;;;;;6160797;28;20447;-75
2022/10/21 14:57:48;;;;;;;41.63;22.55;;;;;;;;;;6160983;28;20529;-75
2022/10/21 15:00:52;;;;;;;38.38;19.60;;;;;;;;;;6168657;28;20023;-75
2022/10/21 15:03:53;;;;;;;27.75;16.10;;;;;;;;;;6162418;28;20044;-75
2022/10/21 15:07:00;;;;;;;30.70;19.02;;;;;;;;;;6174951;28;20483;-74
2022/10/21 15:10:00;;;;;;;33.88;21.00;;;;;;;;;;6148871;29;20480;-74
2022/10/21 15:13:00;;;;;;;34.83;18.70;;;;;;;;;;6173671;28;20501;-75
2022/10/21 15:16:02;;;;;;;28.40;17.50;;;;;;;;;;6160358;28;20166;-74
2022/10/21 15:19:07;;;;;;;34.70;19.27;;;;;;;;;;6165620;28;20599;-74
2022/10/21 15:22:15;;;;;;;34.08;19.63;;;;;;;;;;6165594;28;20109;-74
2022/10/21 15:25:18;;;;;;;38.30;22.33;;;;;;;;;;6168967;28;20023;-74
2022/10/21 15:28:18;;;;;;;36.25;22.23;;;;;;;;;;6172910;28;20031;-75
2022/10/21 15:31:23;;;;;;;70.33;40.07;;;;;;;;;;6155960;28;20027;-75
2022/10/21 15:34:23;;;;;;;49.25;31.38;;;;;;;;;;6173498;28;20489;-75
2022/10/21 15:37:23;;;;;;;31.83;21.20;;;;;;;;;;6170457;28;20022;-74
2022/10/21 15:40:24;;;;;;;33.50;20.70;;;;;;;;;;6160287;28;20384;-75
2022/10/21 15:43:24;;;;;;;29.20;18.53;;;;;;;;;;6169274;28;20046;-74
2022/10/21 15:46:25;;;;;;;31.40;17.83;;;;;;;;;;6167193;28;20023;-75
2022/10/21 15:49:27;;;;;;;23.43;15.13;;;;;;;;;;6152361;28;20475;-74
2022/10/21 15:52:27;;;;;;;27.20;16.42;;;;;;;;;;6173394;28;20038;-75
2022/10/21 15:55:27;;;;;;;31.23;18.80;;;;;;;;;;6165892;28;20339;-75
2022/10/21 15:58:28;;;;;;;50.78;30.27;;;;;;;;;;6168133;28;20034;-75
2022/10/21 16:01:28;;;;;;;81.67;42.80;;;;;;;;;;6154651;28;20123;-75
2022/10/21 16:04:28;;;;;;;226.87;115.97;;;;;;;;;;6173317;28;20058;-75
2022/10/21 16:07:31;;;;;;;146.52;80.57;;;;;;;;;;6172889;28;20030;-75
2022/10/21 16:10:35;;;;;;;111.63;61.13;;;;;;;;;;6152831;28;20030;-75
2022/10/21 16:13:35;;;;;;;67.63;37.17;;;;;;;;;;6170341;28;20027;-75
2022/10/21 16:16:36;;;;;;;46.77;29.43;;;;;;;;;;6170476;28;20522;-75
2022/10/21 16:19:37;;;;;;;59.28;30.30;;;;;;;;;;6158643;28;20359;-75
2022/10/21 16:22:37;;;;;;;53.20;31.47;;;;;;;;;;6158604;28;20102;-75
2022/10/21 16:25:37;;;;;;;87.50;47.88;;;;;;;;;;6172071;28;20394;-75
2022/10/21 16:28:37;;;;;;;89.57;48.80;;;;;;;;;;6172513;28;20062;-75
2022/10/21 16:31:37;;;;;;;111.95;72.20;;;;;;;;;;6173308;28;20026;-74
2022/10/21 16:34:41;;;;;;;85.93;48.05;;;;;;;;;;6156234;28;20089;-74
2022/10/21 16:37:41;;;;;;;70.35;40.28;;;;;;;;;;6167226;28;20074;-74
2022/10/21 16:40:41;;;;;;;55.57;31.93;;;;;;;;;;6166464;28;20010;-74
2022/10/21 16:43:42;;;;;;;47.08;29.20;;;;;;;;;;6174633;28;20023;-74
2022/10/21 16:46:52;;;;;;;56.40;30.73;;;;;;;;;;6175544;28;20109;-73
2022/10/21 16:49:52;;;;;;;75.20;34.70;;;;;;;;;;6168260;28;20058;-74
2022/10/21 16:52:52;;;;;;;108.30;59.38;;;;;;;;;;6174261;28;20023;-74
2022/10/21 16:55:52;;;;;;;86.97;45.43;;;;;;;;;;6173332;28;20391;-74
2022/10/21 16:58:53;;;;;;;58.25;31.90;;;;;;;;;;6172143;28;20391;-74
2022/10/21 17:01:55;;;;;;;81.47;43.13;;;;;;;;;;6158251;28;20823;-74
2022/10/21 17:04:55;;;;;;;51.38;29.00;;;;;;;;;;6139701;28;20071;-74
2022/10/21 17:07:57;;;;;;;36.88;20.75;;;;;;;;;;6147910;28;20050;-74
2022/10/21 17:10:57;;;;;;;33.88;18.40;;;;;;;;;;6161839;28;20029;-73
2022/10/21 17:13:58;;;;;;;36.33;20.17;;;;;;;;;;6161139;28;20027;-73
2022/10/21 17:16:58;;;;;;;32.83;18.07;;;;;;;;;;6150358;28;20035;-74
2022/10/21 17:19:58;;;;;;;30.25;15.82;;;;;;;;;;6169993;28;20031;-74
2022/10/21 17:22:58;;;;;;;30.00;16.57;;;;;;;;;;6165505;28;20050;-74
2022/10/21 17:25:59;;;;;;;29.00;15.33;;;;;;;;;;6171539;28;20033;-74
2022/10/21 17:28:59;;;;;;;25.50;14.00;;;;;;;;;;6170986;28;20046;-74
2022/10/21 17:31:59;;;;;;;26.70;15.70;;;;;;;;;;6156545;28;20542;-74
2022/10/21 17:34:59;;;;;;;28.00;16.60;;;;;;;;;;6182270;28;20069;-74
2022/10/21 17:38:00;;;;;;;22.18;13.16;;;;;;;;;;6165623;28;20022;-74
2022/10/21 17:41:00;;;;;;;26.57;13.53;;;;;;;;;;6167129;28;20050;-74
2022/10/21 17:44:02;;;;;;;22.90;12.43;;;;;;;;;;6170738;28;20081;-73
2022/10/21 17:47:02;;;;;;;22.45;15.27;;;;;;;;;;6165300;28;20102;-73
2022/10/21 17:50:02;;;;;;;37.17;21.90;;;;;;;;;;6147840;28;20475;-74
2022/10/21 17:53:02;;;;;;;28.77;18.83;;;;;;;;;;6148296;28;20015;-74